Time;durP1;ratioP1;P1;durP2;ratioP2;P2;SDS_P1;SDS_P2;PMS_P1;PMS_P2;Temp;Humidity;BMP_temperature;BMP_pressure;BME280_temperature;BME280_humidity;BME280_pressure;Samples;Min_cycle;Max_cycle;Signal;HPM_P1;HPM_P2
2022/06/22 00:01:21;;;;;;;7.45;3.88;;;;;;;13.77;70.66;101275.56;5004330;28;20038;-78
2022/06/22 00:03:51;;;;;;;6.53;3.83;;;;;;;13.69;71.21;101276.22;4999011;28;20026;-78
2022/06/22 00:06:31;;;;;;;6.32;3.70;;;;;;;13.69;70.36;101270.91;5004105;28;20034;-78
2022/06/22 00:08:56;;;;;;;7.60;3.78;;;;;;;13.69;71.05;101269.06;4983096;28;20060;-78
2022/06/22 00:11:23;;;;;;;4.78;4.05;;;;;;;13.65;71.77;101270.28;5007236;28;20058;-79
2022/06/22 00:13:51;;;;;;;9.00;4.38;;;;;;;13.62;71.50;101264.34;5016108;28;20105;-78
2022/06/22 00:16:35;;;;;;;6.20;4.88;;;;;;;13.61;72.23;101260.00;5006089;28;20463;-79
2022/06/22 00:19:12;;;;;;;8.90;4.97;;;;;;;13.59;72.05;101256.59;5014514;28;20033;-78
2022/06/22 00:21:40;;;;;;;13.00;4.72;;;;;;;13.50;72.54;101252.88;5015620;28;20038;-78
2022/06/22 00:24:23;;;;;;;10.82;5.20;;;;;;;13.51;71.94;101251.91;5015557;28;20029;-78
2022/06/22 00:27:26;;;;;;;6.72;4.70;;;;;;;13.50;71.58;101259.03;5015071;28;20038;-78
2022/06/22 00:30:09;;;;;;;8.93;4.97;;;;;;;13.51;72.15;101259.91;5002660;28;20467;-78
2022/06/22 00:32:35;;;;;;;7.55;4.85;;;;;;;13.46;73.00;101257.63;5005052;28;20086;-78
2022/06/22 00:35:38;;;;;;;9.63;5.25;;;;;;;13.49;72.31;101251.19;5014436;28;20430;-78
2022/06/22 00:38:11;;;;;;;9.10;5.53;;;;;;;13.42;74.15;101242.84;5003541;28;20486;-78
2022/06/22 00:40:37;;;;;;;8.80;6.00;;;;;;;13.38;73.72;101241.38;5014971;28;20034;-78
2022/06/22 00:43:04;;;;;;;8.73;5.63;;;;;;;13.30;74.37;101249.13;5002385;28;20025;-78
2022/06/22 00:45:32;;;;;;;9.55;5.68;;;;;;;13.29;75.07;101260.81;5015737;28;20026;-78
2022/06/22 00:48:01;;;;;;;8.23;6.07;;;;;;;13.32;75.06;101271.22;5001776;28;20038;-78
2022/06/22 00:50:40;;;;;;;10.32;5.70;;;;;;;13.30;74.14;101270.47;5013919;28;20026;-78
2022/06/22 00:53:28;;;;;;;10.63;6.35;;;;;;;13.33;73.74;101262.25;5012143;28;20119;-78
2022/06/22 00:56:06;;;;;;;13.85;7.35;;;;;;;13.28;75.11;101251.94;4991960;28;20125;-78
2022/06/22 00:58:43;;;;;;;8.52;6.50;;;;;;;13.28;76.27;101243.09;5006422;28;20030;-78
2022/06/22 01:01:44;;;;;;;12.65;6.20;;;;;;;13.32;74.51;101244.56;5012674;28;20565;-78
2022/06/22 01:04:18;;;;;;;11.75;6.57;;;;;;;13.24;76.17;101231.81;5053499;23;20410;-76
2022/06/22 01:07:02;;;;;;;9.73;6.80;;;;;;;13.24;75.92;101228.28;5008375;28;20062;-77
2022/06/22 01:09:41;;;;;;;8.40;6.60;;;;;;;13.23;75.29;101243.47;5000046;28;20026;-78
2022/06/22 01:12:18;;;;;;;10.07;7.05;;;;;;;13.21;76.23;101256.06;5013258;28;20033;-77
2022/06/22 01:14:52;;;;;;;8.63;6.70;;;;;;;13.21;75.96;101260.56;5011035;28;20014;-77
2022/06/22 01:17:48;;;;;;;10.60;7.22;;;;;;;13.19;76.63;101262.50;5013297;28;20026;-77
2022/06/22 01:20:13;;;;;;;9.80;6.93;;;;;;;13.18;76.62;101272.31;5001932;28;20042;-78
2022/06/22 01:22:46;;;;;;;10.67;6.90;;;;;;;13.17;76.92;101273.28;5011809;28;20041;-77
2022/06/22 01:25:36;;;;;;;8.88;7.30;;;;;;;13.19;77.04;101271.38;5005178;28;20335;-79
2022/06/22 01:28:03;;;;;;;10.75;6.88;;;;;;;13.16;76.64;101263.59;5012340;28;20399;-77
2022/06/22 01:30:34;;;;;;;10.07;7.30;;;;;;;13.12;77.20;101256.81;5011624;28;20025;-77
2022/06/22 01:33:06;;;;;;;11.15;7.32;;;;;;;13.13;77.45;101253.19;5008989;28;20022;-77
2022/06/22 01:35:33;;;;;;;11.50;7.35;;;;;;;13.09;77.97;101230.38;5013201;28;20385;-77
2022/06/22 01:38:11;;;;;;;9.95;7.38;;;;;;;13.09;77.80;101233.91;5007118;28;20391;-77
2022/06/22 01:40:48;;;;;;;11.32;8.32;;;;;;;13.12;78.52;101223.00;5000422;28;20121;-77
2022/06/22 01:43:33;;;;;;;12.02;7.68;;;;;;;13.14;77.68;101234.41;5007176;28;20032;-77
2022/06/22 01:46:16;;;;;;;10.05;7.25;;;;;;;13.14;77.40;101229.06;4994080;28;20034;-77
2022/06/22 01:49:13;;;;;;;11.00;7.70;;;;;;;13.11;77.20;101236.47;5013805;28;20049;-77
2022/06/22 01:51:45;;;;;;;13.70;8.40;;;;;;;13.05;78.68;101234.28;4983672;28;20383;-77
2022/06/22 01:54:21;;;;;;;13.32;8.43;;;;;;;13.05;78.92;101231.63;5007085;28;20026;-77
2022/06/22 01:57:06;;;;;;;13.07;7.97;;;;;;;13.06;78.57;101231.50;5005406;28;20470;-77
2022/06/22 01:59:34;;;;;;;13.25;9.13;;;;;;;13.03;80.14;101233.56;5017695;28;20093;-77
2022/06/22 02:02:14;;;;;;;12.73;8.60;;;;;;;13.03;79.79;101226.41;5003310;28;20505;-77
2022/06/22 02:04:51;;;;;;;10.05;8.32;;;;;;;13.05;79.38;101227.13;4985366;28;20411;-78
2022/06/22 02:10:30;;;;;;;15.00;8.65;;;;;;;13.06;79.48;101230.66;4996700;28;20049;-78
2022/06/22 02:13:01;;;;;;;13.20;9.27;;;;;;;13.05;80.26;101235.13;4979439;28;20050;-78
2022/06/22 02:15:44;;;;;;;14.95;9.18;;;;;;;13.04;79.82;101230.78;4996774;28;20069;-77
2022/06/22 02:18:45;;;;;;;16.30;9.75;;;;;;;13.03;78.95;101226.41;4996278;28;20026;-77
2022/06/22 02:21:24;;;;;;;13.27;8.90;;;;;;;12.98;80.43;101231.28;4993343;28;20034;-78
2022/06/22 02:24:00;;;;;;;10.30;8.90;;;;;;;12.92;80.72;101237.94;4980627;28;20041;-77
2022/06/22 02:26:33;;;;;;;13.68;9.25;;;;;;;12.96;81.05;101227.88;4980250;28;20055;-77
2022/06/22 02:28:59;;;;;;;16.88;9.70;;;;;;;12.94;80.97;101227.16;4977743;28;20122;-78
2022/06/22 02:31:24;;;;;;;12.80;9.45;;;;;;;12.93;81.38;101212.97;4991171;28;20102;-77
2022/06/22 02:33:52;;;;;;;13.23;9.50;;;;;;;12.90;81.14;101213.22;4993521;28;20034;-77
2022/06/22 02:36:20;;;;;;;13.93;8.68;;;;;;;12.91;80.53;101214.09;4996515;28;20034;-77
2022/06/22 02:38:49;;;;;;;12.05;8.63;;;;;;;12.93;81.53;101206.78;4983791;28;20023;-77
2022/06/22 02:46:45;;;;;;;12.75;9.88;;;;;;;12.83;81.49;101203.19;4995032;28;20092;-77
2022/06/22 02:49:21;;;;;;;12.57;8.63;;;;;;;12.85;80.92;101203.91;4989597;28;20088;-78
2022/06/22 02:51:48;;;;;;;13.20;9.15;;;;;;;12.88;81.37;101209.00;4984297;28;20037;-78
2022/06/22 02:54:34;;;;;;;11.50;9.73;;;;;;;12.89;80.99;101210.66;4996406;28;20038;-77
2022/06/22 02:57:15;;;;;;;11.23;9.10;;;;;;;12.84;81.11;101215.53;4987380;28;20027;-78
2022/06/22 02:59:42;;;;;;;14.57;9.32;;;;;;;12.84;81.14;101223.53;4997600;28;20030;-78
2022/06/22 03:02:09;;;;;;;13.23;9.52;;;;;;;12.82;81.23;101217.47;4992516;28;20092;-77
2022/06/22 03:04:34;;;;;;;13.45;9.75;;;;;;;12.78;81.31;101223.03;4991426;28;20042;-77
2022/06/22 03:07:00;;;;;;;13.05;9.23;;;;;;;12.80;80.79;101220.25;4994696;28;20030;-78
2022/06/22 03:09:27;;;;;;;10.70;9.25;;;;;;;12.78;81.79;101225.72;4993892;28;20393;-77
2022/06/22 03:11:55;;;;;;;9.95;8.73;;;;;;;12.77;81.37;101220.50;4992737;28;20045;-77
2022/06/22 03:14:34;;;;;;;12.60;9.63;;;;;;;12.82;80.30;101220.13;4993901;28;20022;-78
2022/06/22 03:17:10;;;;;;;13.70;10.10;;;;;;;12.71;81.19;101211.19;4988119;28;20101;-78
2022/06/22 03:19:42;;;;;;;13.02;9.57;;;;;;;12.72;80.38;101210.22;4992431;28;20030;-77
2022/06/22 03:22:13;;;;;;;12.70;9.63;;;;;;;12.72;80.82;101209.34;4982969;28;20577;-77
2022/06/22 03:24:51;;;;;;;13.57;10.27;;;;;;;12.66;80.45;101201.88;4996361;28;20068;-77
2022/06/22 03:27:23;;;;;;;13.57;9.15;;;;;;;12.61;80.87;101202.25;4990247;28;20057;-77
2022/06/22 03:29:58;;;;;;;13.55;9.63;;;;;;;12.63;80.52;101204.78;4996402;28;20439;-77
2022/06/22 03:32:31;;;;;;;13.07;9.32;;;;;;;12.61;81.30;101202.25;4991131;28;20471;-77
2022/06/22 03:35:20;;;;;;;17.25;10.10;;;;;;;12.56;81.48;101193.75;4989159;28;20501;-77
2022/06/22 03:37:56;;;;;;;15.18;9.95;;;;;;;12.51;81.42;101203.94;4982838;28;20050;-78
2022/06/22 03:40:35;;;;;;;16.52;10.68;;;;;;;12.53;80.86;101210.81;4968549;28;20038;-78
2022/06/22 03:43:08;;;;;;;;;;;;;;;12.63;78.60;101212.78;4982178;28;20034;-77
2022/06/22 03:45:40;;;;;;;12.23;9.77;;;;;;;12.50;81.10;101199.56;4982026;28;19910;-77
2022/06/22 03:48:15;;;;;;;13.20;9.50;;;;;;;12.48;81.04;101188.19;4982522;28;20034;-77
2022/06/22 03:50:56;;;;;;;12.63;10.10;;;;;;;12.48;81.05;101197.03;4981810;28;20114;-77
2022/06/22 03:53:49;;;;;;;15.38;11.13;;;;;;;12.45;81.96;101194.59;4979987;28;20031;-78
2022/06/22 03:56:20;;;;;;;16.10;11.23;;;;;;;12.42;81.92;101192.16;4982382;28;20130;-78
2022/06/22 03:58:49;;;;;;;12.93;10.68;;;;;;;12.45;81.45;101197.25;4976958;28;20042;-77
2022/06/22 04:01:18;;;;;;;13.43;11.30;;;;;;;12.48;82.35;101205.00;4979855;28;20042;-77
2022/06/22 04:03:44;;;;;;;15.25;11.25;;;;;;;12.46;81.66;101190.13;4992721;28;20042;-77
2022/06/22 04:06:21;;;;;;;15.80;11.43;;;;;;;12.52;82.53;101190.50;4978139;28;20529;-78
2022/06/22 04:08:46;;;;;;;20.38;11.02;;;;;;;12.50;82.80;101180.91;4982311;28;20376;-78
2022/06/22 04:11:34;;;;;;;15.82;11.43;;;;;;;12.55;82.71;101187.56;4962480;28;20022;-78
2022/06/22 04:14:07;;;;;;;20.02;12.00;;;;;;;12.56;83.46;101191.09;4976994;28;20053;-78
2022/06/22 04:16:37;;;;;;;15.73;12.35;;;;;;;12.56;83.83;101189.28;4985652;28;20118;-77
2022/06/22 04:19:08;;;;;;;15.10;12.73;;;;;;;12.58;83.89;101190.00;4986336;28;20042;-77
2022/06/22 04:21:40;;;;;;;16.30;12.77;;;;;;;12.62;84.61;101195.91;4986490;28;20375;-77
2022/06/22 04:24:13;;;;;;;18.13;13.80;;;;;;;12.61;85.13;101196.91;4995120;28;20038;-78
2022/06/22 04:26:45;;;;;;;15.05;13.50;;;;;;;12.66;84.73;101191.22;4980942;28;20031;-78
2022/06/22 04:29:35;;;;;;;14.57;12.95;;;;;;;12.70;83.92;101192.66;4985902;28;20410;-78
2022/06/22 04:32:19;;;;;;;17.00;13.10;;;;;;;12.79;84.48;101205.25;4978095;28;20033;-78
2022/06/22 04:34:53;;;;;;;16.35;14.00;;;;;;;12.81;85.60;101215.78;4981370;28;20142;-78
2022/06/22 04:37:33;;;;;;;20.75;14.13;;;;;;;12.87;84.86;101209.94;4987880;28;20034;-77
2022/06/22 04:40:24;;;;;;;18.60;13.18;;;;;;;12.97;84.71;101221.56;4983401;28;20022;-78
2022/06/22 04:42:59;;;;;;;16.80;13.55;;;;;;;13.03;85.74;101225.56;4988568;28;20042;-78
2022/06/22 04:45:29;;;;;;;18.02;12.88;;;;;;;13.13;85.69;101219.34;4985494;28;20038;-78
2022/06/22 04:48:03;;;;;;;18.90;14.18;;;;;;;13.23;86.67;101215.94;4985195;28;20049;-78
2022/06/22 04:50:29;;;;;;;18.15;13.80;;;;;;;13.34;85.98;101213.28;4991459;28;20037;-78
2022/06/22 04:52:58;;;;;;;22.98;14.00;;;;;;;13.45;86.08;101215.88;4979358;28;20023;-77
2022/06/22 04:55:26;;;;;;;17.42;14.38;;;;;;;13.56;85.69;101208.84;4988477;28;20019;-78
2022/06/22 04:57:56;;;;;;;18.25;14.13;;;;;;;13.71;85.56;101206.69;4982713;28;20121;-78
2022/06/22 05:00:25;;;;;;;17.33;14.20;;;;;;;13.85;85.47;101211.72;4987136;28;20022;-78
2022/06/22 05:02:56;;;;;;;21.15;13.20;;;;;;;13.95;84.21;101204.59;4985156;28;20018;-77
2022/06/22 05:05:30;;;;;;;18.13;13.40;;;;;;;14.12;84.26;101229.03;4987173;28;20077;-78
2022/06/22 05:08:15;;;;;;;17.95;13.45;;;;;;;14.32;83.81;101235.31;4980632;28;20811;-78
2022/06/22 05:10:54;;;;;;;16.85;14.02;;;;;;;14.44;83.26;101226.25;4983575;28;20026;-78
2022/06/22 05:13:25;;;;;;;15.32;13.00;;;;;;;14.58;82.52;101219.69;4988539;28;20033;-78
2022/06/22 05:15:54;;;;;;;19.17;13.35;;;;;;;14.70;82.05;101226.66;4988888;28;20037;-78
2022/06/22 05:18:27;;;;;;;17.35;12.60;;;;;;;14.84;81.67;101229.94;4974920;28;20097;-78
2022/06/22 05:21:10;;;;;;;18.17;12.88;;;;;;;14.98;80.74;101222.38;4974596;28;20117;-78
2022/06/22 05:23:37;;;;;;;17.83;12.38;;;;;;;15.08;80.70;101224.25;4991017;28;20108;-78
2022/06/22 05:26:06;;;;;;;18.30;12.70;;;;;;;15.15;80.12;101226.25;4977033;28;20023;-79
2022/06/22 05:28:31;;;;;;;17.15;13.40;;;;;;;15.23;80.21;101235.41;4974995;28;20027;-79
2022/06/22 05:31:04;;;;;;;18.48;12.13;;;;;;;15.32;79.82;101231.88;4986110;28;20022;-78
2022/06/22 05:33:30;;;;;;;14.25;11.82;;;;;;;15.40;79.38;101233.88;4990466;28;20033;-79
2022/06/22 05:36:01;;;;;;;17.20;12.60;;;;;;;15.50;79.30;101232.03;4987490;28;20030;-78
2022/06/22 05:38:28;;;;;;;17.85;12.95;;;;;;;15.68;79.06;101237.53;4994082;28;20105;-79
2022/06/22 05:40:54;;;;;;;16.10;12.23;;;;;;;15.87;78.20;101242.94;4990803;28;20038;-79
2022/06/22 05:43:21;;;;;;;18.40;12.50;;;;;;;16.01;77.41;101251.53;4977393;28;20066;-78
2022/06/22 05:45:54;;;;;;;19.00;12.25;;;;;;;16.20;76.45;101250.63;4985950;28;20037;-78
2022/06/22 05:48:24;;;;;;;16.95;11.18;;;;;;;16.37;75.56;101251.72;4973555;28;20094;-78
2022/06/22 05:50:55;;;;;;;15.52;12.15;;;;;;;16.51;74.61;101251.25;4986219;28;20027;-78
2022/06/22 05:53:30;;;;;;;17.77;10.68;;;;;;;16.69;74.43;101259.38;4986952;28;20022;-81
2022/06/22 05:55:55;;;;;;;16.05;11.50;;;;;;;16.89;73.84;101273.59;4991453;28;20088;-79
2022/06/22 05:58:27;;;;;;;17.73;11.23;;;;;;;17.09;72.91;101277.00;4990717;28;20026;-80
2022/06/22 06:00:56;;;;;;;15.40;11.02;;;;;;;17.31;72.45;101269.53;4988777;28;20027;-80
2022/06/22 06:03:39;;;;;;;15.85;10.65;;;;;;;17.54;71.29;101272.63;5001268;28;20053;-80
2022/06/22 06:06:14;;;;;;;19.90;11.25;;;;;;;17.79;70.05;101271.00;4990254;28;20042;-79
2022/06/22 06:08:57;;;;;;;13.27;10.13;;;;;;;17.89;69.85;101265.59;4979248;28;20038;-79
2022/06/22 06:11:28;;;;;;;19.50;10.90;;;;;;;18.08;68.98;101267.25;4986425;28;20427;-79
2022/06/22 06:14:01;;;;;;;17.67;11.00;;;;;;;18.23;68.37;101262.13;4987614;28;20475;-79
2022/06/22 06:16:35;;;;;;;18.38;10.88;;;;;;;18.34;67.92;101263.75;4976712;28;20065;-80
2022/06/22 06:19:06;;;;;;;17.25;10.25;;;;;;;18.52;67.25;101263.66;4968797;28;20031;-80
2022/06/22 06:21:39;;;;;;;15.43;10.05;;;;;;;18.64;66.41;101262.41;4991537;28;20098;-79
2022/06/22 06:24:20;;;;;;;14.43;10.50;;;;;;;18.83;66.00;101267.53;4994046;28;20395;-81
2022/06/22 06:30:03;;;;;;;16.45;10.20;;;;;;;19.27;65.60;101269.22;4992796;28;20053;-77
2022/06/22 06:32:51;;;;;;;14.10;10.27;;;;;;;19.56;63.24;101271.47;4992132;28;20110;-80
2022/06/22 06:35:25;;;;;;;16.10;10.10;;;;;;;19.74;61.21;101273.19;4987430;28;20054;-80
2022/06/22 06:38:07;;;;;;;14.43;9.55;;;;;;;19.98;61.88;101269.66;4996802;28;20288;-80
2022/06/22 06:40:45;;;;;;;15.68;10.40;;;;;;;20.23;61.47;101273.19;4993921;28;20042;-80
2022/06/22 06:43:36;;;;;;;13.95;9.75;;;;;;;20.54;60.63;101260.84;4989776;28;20058;-79
2022/06/22 06:46:07;;;;;;;15.50;10.02;;;;;;;20.70;58.28;101261.66;4987107;28;20124;-79
2022/06/22 06:48:36;;;;;;;14.25;9.80;;;;;;;20.80;56.60;101247.94;4989686;28;20034;-79
2022/06/22 06:51:06;;;;;;;13.82;9.90;;;;;;;20.91;57.08;101248.56;4983601;28;20043;-79
2022/06/22 06:53:41;;;;;;;17.48;9.73;;;;;;;21.09;57.47;101242.94;4986185;28;20026;-80
2022/06/22 06:56:25;;;;;;;12.40;9.43;;;;;;;21.22;56.97;101252.13;4985250;28;20038;-80
2022/06/22 06:58:55;;;;;;;13.27;9.50;;;;;;;21.42;54.96;101239.00;4987041;28;20038;-80
2022/06/22 07:01:27;;;;;;;14.38;9.55;;;;;;;21.54;55.24;101228.63;4990534;28;20065;-81
2022/06/22 07:03:59;;;;;;;15.40;8.82;;;;;;;21.58;54.53;101238.06;4989421;28;20570;-81
2022/06/22 07:06:27;;;;;;;13.48;9.27;;;;;;;21.69;54.59;101236.78;4979041;28;20026;-80
2022/06/22 07:09:00;;;;;;;14.73;9.57;;;;;;;21.81;53.87;101234.50;4990248;28;20491;-80
2022/06/22 07:12:04;;;;;;;13.85;8.55;;;;;;;21.93;55.06;101227.66;4985357;28;20544;-80
2022/06/22 07:14:41;;;;;;;13.27;8.18;;;;;;;21.98;54.38;101229.78;4978374;28;20117;-81
2022/06/22 07:17:10;;;;;;;14.23;8.68;;;;;;;22.10;53.10;101230.16;4984864;28;20482;-80
2022/06/22 07:19:40;;;;;;;14.35;9.35;;;;;;;22.25;53.11;101230.19;4996285;28;20026;-80
2022/06/22 07:22:19;;;;;;;12.50;8.40;;;;;;;22.32;52.50;101232.00;4977718;28;20438;-80
2022/06/22 07:25:00;;;;;;;12.63;8.85;;;;;;;22.29;53.35;101216.16;4978758;28;20066;-80
2022/06/22 07:27:33;;;;;;;15.38;8.95;;;;;;;22.34;51.93;101231.84;4992741;28;20037;-79
2022/06/22 07:30:16;;;;;;;18.73;9.75;;;;;;;22.30;51.64;101219.69;4976915;28;20058;-82
2022/06/22 07:33:09;;;;;;;14.23;9.32;;;;;;;22.50;53.09;101209.16;4977113;28;20073;-82
2022/06/22 07:35:35;;;;;;;14.75;8.98;;;;;;;22.47;52.21;101210.38;4985578;28;20475;-82
2022/06/22 07:38:22;;;;;;;11.73;9.23;;;;;;;22.61;53.49;101205.97;4990843;28;20031;-82
2022/06/22 07:43:33;;;;;;;11.95;8.95;;;;;;;22.68;51.47;101214.16;4989555;28;20062;-82
2022/06/22 07:45:59;;;;;;;11.55;8.57;;;;;;;22.73;50.74;101219.84;4982099;28;20027;-81
2022/06/22 07:48:26;;;;;;;16.38;9.20;;;;;;;22.78;50.24;101222.84;4982308;28;20077;-83
2022/06/22 07:50:58;;;;;;;10.10;7.95;;;;;;;22.82;50.69;101224.16;4985511;28;20538;-81
2022/06/22 07:53:45;;;;;;;13.60;8.15;;;;;;;22.91;50.56;101217.59;4991880;28;20023;-83
2022/06/22 07:56:26;;;;;;;13.20;8.65;;;;;;;22.85;51.19;101210.22;4978392;28;20025;-82
2022/06/22 07:58:57;;;;;;;11.07;7.93;;;;;;;22.83;51.33;101214.16;4984071;28;20027;-82
2022/06/22 08:01:29;;;;;;;16.02;8.98;;;;;;;22.94;50.24;101215.53;4985616;28;20018;-82
2022/06/22 08:04:17;;;;;;;13.60;8.70;;;;;;;22.96;51.37;101214.31;4971817;28;20065;-82
2022/06/22 08:07:04;;;;;;;15.35;8.25;;;;;;;23.00;51.62;101212.06;4995109;28;20069;-82
2022/06/22 08:09:46;;;;;;;13.38;9.05;;;;;;;22.95;51.63;101228.91;4988044;28;20488;-85
2022/06/22 08:12:40;;;;;;;12.75;8.88;;;;;;;22.98;51.58;101233.09;4976363;28;20034;-85
2022/06/22 08:15:08;;;;;;;14.02;8.55;;;;;;;23.19;50.17;101221.47;4964052;28;20387;-84
2022/06/22 08:17:50;;;;;;;12.85;8.40;;;;;;;23.42;50.88;101230.28;4992168;28;20026;-84
2022/06/22 08:20:29;;;;;;;13.20;8.18;;;;;;;23.80;50.96;101223.75;4987331;28;20073;-83
2022/06/22 08:22:57;;;;;;;17.30;8.57;;;;;;;23.84;50.38;101219.63;4986928;28;20368;-83
2022/06/22 08:25:23;;;;;;;10.93;8.43;;;;;;;24.12;48.68;101230.47;4994801;28;20498;-83
2022/06/22 08:27:50;;;;;;;13.70;8.40;;;;;;;24.44;48.37;101238.22;4995126;28;20054;-83
2022/06/22 08:30:16;;;;;;;9.82;7.65;;;;;;;24.62;47.25;101233.13;4991540;28;20034;-84
2022/06/22 08:33:05;;;;;;;9.63;7.38;;;;;;;24.99;47.42;101241.00;4981424;28;20027;-84
2022/06/22 08:35:34;;;;;;;;;;;;;;;25.29;48.51;101233.38;4980654;28;20479;-83
2022/06/22 08:38:22;;;;;;;10.13;6.78;;;;;;;25.51;47.16;101231.31;4995038;28;20309;-83
2022/06/22 08:40:52;;;;;;;13.65;6.88;;;;;;;25.72;43.95;101230.31;4993538;28;20046;-84
2022/06/22 08:43:37;;;;;;;11.73;6.47;;;;;;;25.93;44.11;101232.00;4985756;28;20027;-83
2022/06/22 08:46:24;;;;;;;12.45;6.43;;;;;;;26.20;42.60;101232.81;4978257;28;20030;-82
2022/06/22 08:49:08;;;;;;;18.75;6.22;;;;;;;26.48;41.29;101229.00;4977975;28;20057;-82
2022/06/22 08:51:49;;;;;;;7.78;5.20;;;;;;;26.69;42.82;101233.34;4986647;28;20057;-84
2022/06/22 08:54:45;;;;;;;7.57;4.90;;;;;;;26.69;42.06;101229.78;4992520;28;20038;-82
2022/06/22 08:57:23;;;;;;;10.93;5.07;;;;;;;26.79;39.21;101227.44;4987201;28;20031;-83
2022/06/22 08:59:51;;;;;;;6.00;3.88;;;;;;;27.30;39.48;101223.03;4978257;28;20371;-83
2022/06/22 09:02:30;;;;;;;8.88;4.22;;;;;;;27.45;38.77;101223.53;4995496;28;20053;-82
2022/06/22 09:05:10;;;;;;;6.93;3.35;;;;;;;27.50;34.45;101217.44;4980016;28;20261;-82
2022/06/22 09:08:10;;;;;;;9.90;3.20;;;;;;;27.67;36.02;101215.00;4975319;28;20443;-82
2022/06/22 09:11:14;;;;;;;5.72;2.83;;;;;;;28.00;36.67;101220.19;4961120;28;20043;-82
2022/06/22 09:13:51;;;;;;;11.25;3.20;;;;;;;28.02;32.99;101220.78;4973055;28;20057;-82
2022/06/22 09:16:37;;;;;;;10.82;3.00;;;;;;;28.21;35.17;101220.81;4977184;28;20035;-82
2022/06/22 09:19:19;;;;;;;6.18;2.45;;;;;;;28.35;34.38;101224.25;4979070;28;20458;-82
2022/06/22 09:22:06;;;;;;;6.38;2.72;;;;;;;28.48;32.52;101237.78;4991773;28;20038;-82
2022/06/22 09:24:31;;;;;;;5.75;2.92;;;;;;;28.67;32.34;101226.88;4994342;28;20037;-82
2022/06/22 09:27:14;;;;;;;4.63;2.50;;;;;;;28.90;33.89;101231.63;4993291;28;20034;-82
2022/06/22 09:29:54;;;;;;;7.43;2.60;;;;;;;29.04;33.69;101233.09;4992383;28;20030;-82
2022/06/22 09:32:42;;;;;;;6.35;2.92;;;;;;;29.20;33.06;101237.13;4974757;28;20027;-81
2022/06/22 09:35:42;;;;;;;10.65;3.10;;;;;;;29.30;32.49;101225.63;4969987;28;20038;-82
2022/06/22 09:38:16;;;;;;;5.13;2.60;;;;;;;29.45;30.97;101236.97;4994155;28;20471;-82
2022/06/22 09:41:00;;;;;;;6.25;3.20;;;;;;;29.49;32.74;101238.19;4979196;28;20039;-83
2022/06/22 09:44:02;;;;;;;7.78;3.30;;;;;;;29.44;31.64;101240.75;4974659;28;20097;-82
2022/06/22 09:46:56;;;;;;;5.93;3.15;;;;;;;29.55;31.72;101241.88;4975134;28;20030;-82
2022/06/22 09:49:30;;;;;;;8.25;2.85;;;;;;;29.62;30.53;101236.28;4978495;28;20105;-81
2022/06/22 09:52:26;;;;;;;6.00;2.63;;;;;;;29.73;31.43;101232.75;4986697;28;20034;-83
2022/06/22 09:58:23;;;;;;;8.13;2.40;;;;;;;30.21;31.17;101228.97;4991004;28;20633;-83
2022/06/22 10:00:56;;;;;;;6.18;2.53;;;;;;;30.21;28.59;101220.75;4980998;28;20042;-83
2022/06/22 10:03:31;;;;;;;6.57;2.25;;;;;;;30.29;28.41;101219.53;4989201;28;20111;-84
2022/06/22 10:06:21;;;;;;;5.10;2.30;;;;;;;30.36;29.01;101213.94;4975352;28;20077;-84
2022/06/22 10:08:47;;;;;;;5.97;2.42;;;;;;;30.67;27.15;101217.38;4978962;28;20042;-84
2022/06/22 10:12:11;;;;;;;5.25;2.17;;;;;;;30.74;29.29;101218.06;4979239;28;20030;-84
2022/06/22 10:14:42;;;;;;;12.30;2.67;;;;;;;30.61;27.36;101210.94;4919145;29;20136;-85
2022/06/22 10:17:25;;;;;;;5.13;2.10;;;;;;;30.76;27.08;101205.78;4917784;29;20039;-84
2022/06/22 10:20:15;;;;;;;4.47;1.98;;;;;;;30.97;28.31;101198.78;4955380;28;20551;-84
2022/06/22 10:23:01;;;;;;;4.57;1.98;;;;;;;31.23;27.80;101184.72;4982729;28;20033;-83
2022/06/22 10:25:46;;;;;;;7.93;1.98;;;;;;;31.10;26.59;101186.69;4996638;28;20090;-84
2022/06/22 10:28:32;;;;;;;5.80;2.17;;;;;;;31.40;27.26;101193.78;4997956;28;20037;-82
2022/06/22 10:31:14;;;;;;;16.85;2.28;;;;;;;31.40;26.81;101203.97;4991342;28;20109;-84
2022/06/22 10:34:01;;;;;;;9.48;2.20;;;;;;;31.54;27.31;101202.56;4985678;28;20080;-82
2022/06/22 10:36:50;;;;;;;6.57;1.95;;;;;;;31.64;27.11;101194.50;4981410;28;20027;-82
2022/06/22 10:39:53;;;;;;;6.32;2.45;;;;;;;31.68;27.36;101192.09;4986967;28;20105;-82
2022/06/22 10:45:48;;;;;;;4.72;1.80;;;;;;;31.82;26.68;101187.91;4981424;28;20505;-82
2022/06/22 10:48:41;;;;;;;5.75;2.10;;;;;;;32.17;26.75;101185.97;4991770;28;20132;-83
2022/06/22 10:51:33;;;;;;;9.30;2.58;;;;;;;32.00;24.63;101185.97;4994168;28;20100;-82
2022/06/22 10:54:19;;;;;;;4.72;2.05;;;;;;;31.88;25.25;101191.56;4985633;28;20043;-83
2022/06/22 10:56:48;;;;;;;3.60;2.05;;;;;;;32.19;24.74;101189.28;4994630;28;20043;-82
2022/06/22 10:59:31;;;;;;;4.57;2.22;;;;;;;32.30;26.16;101184.75;4992050;28;20046;-82
2022/06/22 11:02:24;;;;;;;6.15;2.05;;;;;;;32.37;25.97;101186.22;4989774;28;20030;-82
2022/06/22 11:04:50;;;;;;;6.47;2.20;;;;;;;32.47;24.24;101182.78;4997444;28;20141;-82
2022/06/22 11:07:37;;;;;;;8.05;2.15;;;;;;;32.64;25.10;101171.72;4987284;28;20543;-80
2022/06/22 11:10:15;;;;;;;5.30;2.00;;;;;;;32.33;23.88;101187.00;4981155;28;20037;-79
2022/06/22 11:12:53;;;;;;;7.95;1.95;;;;;;;32.58;23.54;101192.00;4991856;28;20052;-80
2022/06/22 11:16:04;;;;;;;5.47;2.22;;;;;;;32.67;24.19;101187.72;4990556;28;20035;-79
2022/06/22 11:18:53;;;;;;;5.88;2.13;;;;;;;32.43;24.13;101179.72;4975715;28;20041;-79
2022/06/22 11:21:48;;;;;;;5.78;1.98;;;;;;;32.56;24.26;101178.50;4985463;28;20042;-79
2022/06/22 11:24:13;;;;;;;6.22;1.98;;;;;;;32.40;22.85;101177.47;4986463;28;20120;-79
2022/06/22 11:30:58;;;;;;;3.88;1.90;;;;;;;32.33;24.67;101171.34;4971163;28;20117;-79
2022/06/22 11:33:26;;;;;;;6.38;2.08;;;;;;;32.73;25.97;101178.44;4980233;28;20046;-79
2022/06/22 11:36:15;;;;;;;7.22;1.92;;;;;;;32.56;24.87;101175.75;4994640;28;20036;-79
2022/06/22 11:38:59;;;;;;;7.65;2.10;;;;;;;32.50;23.73;101187.75;4988469;28;20031;-79
2022/06/22 11:41:32;;;;;;;6.05;2.20;;;;;;;32.54;23.61;101188.06;4985859;28;20043;-79
2022/06/22 11:44:41;;;;;;;5.05;2.00;;;;;;;32.59;24.45;101197.22;4981235;28;20379;-79
2022/06/22 11:47:15;;;;;;;6.57;1.90;;;;;;;32.43;23.04;101182.47;4933570;29;20047;-79
2022/06/22 11:50:01;;;;;;;3.92;1.60;;;;;;;32.57;23.63;101191.13;4928803;29;20040;-78
2022/06/22 11:52:49;;;;;;;6.70;1.50;;;;;;;32.60;23.96;101187.06;4926902;29;20134;-78
2022/06/22 11:55:37;;;;;;;4.38;1.50;;;;;;;32.64;23.28;101179.97;4929481;29;20091;-79
2022/06/22 11:58:25;;;;;;;5.85;1.63;;;;;;;32.55;23.58;101192.50;4941645;29;20043;-79
2022/06/22 12:01:28;;;;;;;8.93;2.20;;;;;;;32.70;24.14;101183.63;4933264;29;20082;-79
2022/06/22 12:04:14;;;;;;;10.25;2.10;;;;;;;32.54;24.94;101180.69;4932711;29;20057;-78
2022/06/22 12:07:22;;;;;;;5.95;2.10;;;;;;;32.76;24.85;101183.44;4937076;29;20051;-79
2022/06/22 12:10:06;;;;;;;4.40;1.85;;;;;;;32.23;24.56;101177.53;4916510;29;20548;-79
2022/06/22 12:12:48;;;;;;;5.28;1.80;;;;;;;32.25;24.20;101180.03;4931463;29;20047;-79
2022/06/22 12:15:49;;;;;;;4.78;2.00;;;;;;;32.26;24.04;101176.19;4925751;29;20035;-78
2022/06/22 12:18:26;;;;;;;4.97;1.70;;;;;;;31.94;24.58;101173.25;4961882;28;20101;-79
2022/06/22 12:21:21;;;;;;;3.17;1.75;;;;;;;31.98;25.20;101158.75;4975767;28;20042;-79
2022/06/22 12:24:23;;;;;;;7.00;1.73;;;;;;;31.86;24.68;101150.63;4985549;28;20045;-78
2022/06/22 12:27:26;;;;;;;3.92;1.60;;;;;;;31.59;25.56;101150.47;4966295;28;20030;-79
2022/06/22 12:30:08;;;;;;;8.27;1.88;;;;;;;31.29;25.73;101135.19;4987816;28;20030;-79
2022/06/22 12:32:45;;;;;;;4.57;1.60;;;;;;;31.21;23.32;101140.22;4984788;28;20386;-79
2022/06/22 12:35:20;;;;;;;3.53;1.40;;;;;;;31.17;23.76;101140.72;4977854;28;20051;-79